Time,TemperatureF,DewpointF,PressureIn,WindDirection,WindDirectionDegrees,WindSpeedMPH,WindSpeedGustMPH,Humidity,HourlyPrecipIn,Conditions,Clouds,dailyrainin,SoftwareType,DateUTC
2013-02-27 00:00:00,16.0,13.3,29.97,North,352,2.0,2.0,89,0.00,,,0.00,vanprod-2.3,2013-02-27 06:00:00,
2013-02-27 00:05:00,16.0,13.3,29.97,North,352,2.0,3.0,89,0.00,,,0.00,vanprod-2.3,2013-02-27 06:05:00,
2013-02-27 00:10:00,15.9,13.2,29.97,North,352,1.0,2.0,89,0.00,,,0.00,vanprod-2.3,2013-02-27 06:10:00,
2013-02-27 00:15:00,15.9,13.2,29.97,North,352,2.0,2.0,89,0.00,,,0.00,vanprod-2.3,2013-02-27 06:15:00,
2013-02-27 00:20:00,15.9,13.2,29.97,North,350,4.0,7.0,89,0.00,,,0.00,vanprod-2.3,2013-02-27 06:20:00,
2013-02-27 00:25:00,15.9,13.2,29.97,North,353,4.0,4.0,89,0.00,,,0.00,vanprod-2.3,2013-02-27 06:25:00,
2013-02-27 00:30:00,15.9,13.2,29.97,North,353,3.0,6.0,89,0.00,,,0.00,vanprod-2.3,2013-02-27 06:30:00,
2013-02-27 00:35:00,15.9,13.2,29.97,NNW,342,2.0,2.0,89,0.00,,,0.00,vanprod-2.3,2013-02-27 06:35:00,
2013-02-27 00:40:00,15.9,13.2,29.97,NNW,342,3.0,6.0,89,0.00,,,0.00,vanprod-2.3,2013-02-27 06:40:00,
2013-02-27 00:45:00,15.9,13.2,29.97,NNW,342,4.0,7.0,89,0.00,,,0.00,vanprod-2.3,2013-02-27 06:45:00,
2013-02-27 00:50:00,15.9,13.2,29.97,NNW,342,2.0,3.0,89,0.00,,,0.00,vanprod-2.3,2013-02-27 06:50:00,
2013-02-27 00:55:00,15.9,13.0,29.97,NNW,342,3.0,6.0,88,0.00,,,0.00,vanprod-2.3,2013-02-27 06:55:00,
2013-02-27 01:00:00,15.9,13.0,29.97,NNW,339,4.0,6.0,88,0.00,,,0.00,vanprod-2.3,2013-02-27 07:00:00,
2013-02-27 01:05:00,15.9,13.0,29.97,NNW,339,3.0,6.0,88,0.00,,,0.00,vanprod-2.3,2013-02-27 07:05:00,
2013-02-27 01:10:00,15.7,12.8,29.97,NNW,339,4.0,5.0,88,0.00,,,0.00,vanprod-2.3,2013-02-27 07:10:00,
2013-02-27 01:15:00,15.7,12.8,29.97,NNW,340,3.0,3.0,88,0.00,,,0.00,vanprod-2.3,2013-02-27 07:15:00,
2013-02-27 01:20:00,15.7,12.8,29.97,NNW,335,4.0,8.0,88,0.00,,,0.00,vanprod-2.3,2013-02-27 07:20:00,
2013-02-27 01:25:00,15.6,12.7,29.97,NNW,335,2.0,7.0,88,0.00,,,0.00,vanprod-2.3,2013-02-27 07:25:00,
2013-02-27 01:30:00,15.6,12.7,29.97,NNW,336,2.0,5.0,88,0.00,,,0.00,vanprod-2.3,2013-02-27 07:30:00,
2013-02-27 01:35:00,15.4,12.5,29.97,NNW,342,4.0,4.0,88,0.00,,,0.00,vanprod-2.3,2013-02-27 07:35:00,
2013-02-27 01:40:00,15.4,12.5,29.97,NNW,340,4.0,4.0,88,0.00,,,0.00,vanprod-2.3,2013-02-27 07:40:00,
2013-02-27 01:45:00,15.2,12.3,29.97,NNW,340,2.0,3.0,88,0.00,,,0.00,vanprod-2.3,2013-02-27 07:45:00,
2013-02-27 01:50:00,15.1,11.9,29.98,NNW,340,2.0,2.0,87,0.00,,,0.00,vanprod-2.3,2013-02-27 07:50:00,
2013-02-27 01:55:00,15.1,11.9,29.98,NNW,340,4.0,7.0,87,0.00,,,0.00,vanprod-2.3,2013-02-27 07:55:00,
2013-02-27 02:00:00,15.1,11.9,29.98,NNW,340,3.0,6.0,87,0.00,,,0.00,vanprod-2.3,2013-02-27 08:00:00,
2013-02-27 02:05:00,14.9,11.7,29.98,NNW,339,4.0,4.0,87,0.00,,,0.00,vanprod-2.3,2013-02-27 08:05:00,
2013-02-27 02:10:00,14.9,11.7,29.98,NNW,347,3.0,8.0,87,0.00,,,0.00,vanprod-2.3,2013-02-27 08:10:00,
2013-02-27 02:15:00,14.9,11.7,29.98,NNW,347,3.0,5.0,87,0.00,,,0.00,vanprod-2.3,2013-02-27 08:15:00,
2013-02-27 02:20:00,14.7,11.5,29.98,NNW,347,4.0,6.0,87,0.00,,,0.00,vanprod-2.3,2013-02-27 08:20:00,
2013-02-27 02:25:00,14.7,11.5,29.98,NNW,347,4.0,7.0,87,0.00,,,0.00,vanprod-2.3,2013-02-27 08:25:00,
2013-02-27 02:30:00,14.7,11.5,29.97,NNW,347,3.0,4.0,87,0.00,,,0.00,vanprod-2.3,2013-02-27 08:30:00,
2013-02-27 02:35:00,14.7,11.5,29.97,NNW,347,2.0,2.0,87,0.00,,,0.00,vanprod-2.3,2013-02-27 08:35:00,
2013-02-27 02:40:00,14.7,11.5,29.97,NNW,346,3.0,3.0,87,0.00,,,0.00,vanprod-2.3,2013-02-27 08:40:00,
2013-02-27 02:45:00,14.6,11.4,29.97,NNW,346,2.0,4.0,87,0.00,,,0.00,vanprod-2.3,2013-02-27 08:45:00,
2013-02-27 02:50:00,14.4,11.2,29.97,NNW,346,3.0,6.0,87,0.00,,,0.00,vanprod-2.3,2013-02-27 08:50:00,
2013-02-27 02:55:00,14.4,11.2,29.97,NNW,343,2.0,2.0,87,0.00,,,0.00,vanprod-2.3,2013-02-27 08:55:00,
2013-02-27 03:00:00,14.4,11.2,29.97,NNW,344,3.0,3.0,87,0.00,,,0.00,vanprod-2.3,2013-02-27 09:00:00,
2013-02-27 03:05:00,14.3,11.1,29.97,NNW,344,2.0,3.0,87,0.00,,,0.00,vanprod-2.3,2013-02-27 09:05:00,
2013-02-27 03:10:00,14.3,11.1,29.97,NNW,344,3.0,7.0,87,0.00,,,0.00,vanprod-2.3,2013-02-27 09:10:00,
2013-02-27 03:15:00,14.1,11.0,29.97,NNW,343,2.0,5.0,87,0.00,,,0.00,vanprod-2.3,2013-02-27 09:15:00,
2013-02-27 03:20:00,14.1,11.0,29.97,NNW,343,1.0,2.0,87,0.00,,,0.00,vanprod-2.3,2013-02-27 09:20:00,
2013-02-27 03:25:00,13.9,10.8,29.97,NNW,343,3.0,3.0,87,0.00,,,0.00,vanprod-2.3,2013-02-27 09:25:00,
2013-02-27 03:30:00,13.9,10.8,29.97,NNW,343,3.0,3.0,87,0.00,,,0.00,vanprod-2.3,2013-02-27 09:30:00,
2013-02-27 03:35:00,13.9,10.8,29.97,NNW,343,3.0,3.0,87,0.00,,,0.00,vanprod-2.3,2013-02-27 09:35:00,
2013-02-27 03:40:00,13.8,10.7,29.97,NNW,343,2.0,2.0,87,0.00,,,0.00,vanprod-2.3,2013-02-27 09:40:00,
2013-02-27 03:45:00,13.8,10.7,29.97,NNW,343,1.0,0.0,87,0.00,,,0.00,vanprod-2.3,2013-02-27 09:45:00,
2013-02-27 03:50:00,13.8,10.7,29.97,NNW,343,2.0,2.0,87,0.00,,,0.00,vanprod-2.3,2013-02-27 09:50:00,
2013-02-27 03:55:00,13.6,10.5,29.97,NNW,343,1.0,2.0,87,0.00,,,0.00,vanprod-2.3,2013-02-27 09:55:00,
2013-02-27 04:00:00,13.5,10.4,29.97,NNW,343,3.0,3.0,87,0.00,,,0.00,vanprod-2.3,2013-02-27 10:00:00,
2013-02-27 04:05:00,13.5,10.4,29.97,NNW,343,2.0,2.0,87,0.00,,,0.00,vanprod-2.3,2013-02-27 10:05:00,
2013-02-27 04:10:00,13.3,10.2,29.97,NNW,341,4.0,7.0,87,0.00,,,0.00,vanprod-2.3,2013-02-27 10:10:00,
2013-02-27 04:15:00,13.3,10.2,29.97,NNW,337,4.0,5.0,87,0.00,,,0.00,vanprod-2.3,2013-02-27 10:15:00,
2013-02-27 04:20:00,13.1,10.0,29.97,NNW,337,4.0,5.0,87,0.00,,,0.00,vanprod-2.3,2013-02-27 10:20:00,
2013-02-27 04:25:00,13.1,10.0,29.97,NNW,336,3.0,9.0,87,0.00,,,0.00,vanprod-2.3,2013-02-27 10:25:00,
2013-02-27 04:30:00,13.3,10.2,29.97,NNW,336,3.0,3.0,87,0.00,,,0.00,vanprod-2.3,2013-02-27 10:30:00,
2013-02-27 04:35:00,13.3,10.2,29.97,NNW,336,3.0,4.0,87,0.00,,,0.00,vanprod-2.3,2013-02-27 10:35:00,
2013-02-27 04:40:00,13.3,10.2,29.97,NNW,336,3.0,3.0,87,0.00,,,0.00,vanprod-2.3,2013-02-27 10:40:00,
2013-02-27 04:45:00,13.3,10.2,29.97,NNW,336,3.0,3.0,87,0.00,,,0.00,vanprod-2.3,2013-02-27 10:45:00,
2013-02-27 04:50:00,13.3,10.2,29.97,NNW,337,3.0,4.0,87,0.00,,,0.00,vanprod-2.3,2013-02-27 10:50:00,
2013-02-27 04:55:00,13.3,10.2,29.97,NNW,337,3.0,3.0,87,0.00,,,0.00,vanprod-2.3,2013-02-27 10:55:00,
2013-02-27 05:00:00,13.3,10.2,29.97,NNW,337,3.0,3.0,87,0.00,,,0.00,vanprod-2.3,2013-02-27 11:00:00,
2013-02-27 05:05:00,13.5,10.4,29.97,NNW,337,3.0,3.0,87,0.00,,,0.00,vanprod-2.3,2013-02-27 11:05:00,
2013-02-27 05:10:00,13.5,10.4,29.97,NNW,337,2.0,6.0,87,0.00,,,0.00,vanprod-2.3,2013-02-27 11:10:00,
2013-02-27 05:15:00,13.5,10.4,29.97,NNW,335,3.0,3.0,87,0.00,,,0.00,vanprod-2.3,2013-02-27 11:15:00,
2013-02-27 05:20:00,13.5,10.1,29.97,NNW,335,2.0,3.0,86,0.00,,,0.00,vanprod-2.3,2013-02-27 11:20:00,
2013-02-27 05:25:00,13.6,10.2,29.97,NNW,335,2.0,2.0,86,0.00,,,0.00,vanprod-2.3,2013-02-27 11:25:00,
2013-02-27 05:30:00,13.6,10.2,29.97,NNW,335,3.0,10.0,86,0.00,,,0.00,vanprod-2.3,2013-02-27 11:30:00,
2013-02-27 05:35:00,13.8,10.4,29.97,NNW,336,2.0,5.0,86,0.00,,,0.00,vanprod-2.3,2013-02-27 11:35:00,
2013-02-27 05:40:00,13.8,10.1,29.97,NNW,336,2.0,5.0,85,0.00,,,0.00,vanprod-2.3,2013-02-27 11:40:00,
2013-02-27 05:45:00,13.8,10.1,29.97,NNW,335,3.0,5.0,85,0.00,,,0.00,vanprod-2.3,2013-02-27 11:45:00,
2013-02-27 05:50:00,13.6,9.9,29.97,NNW,335,2.0,5.0,85,0.00,,,0.00,vanprod-2.3,2013-02-27 11:50:00,
2013-02-27 05:55:00,13.6,9.9,29.97,NNW,335,3.0,3.0,85,0.00,,,0.00,vanprod-2.3,2013-02-27 11:55:00,
2013-02-27 06:00:00,13.6,9.9,29.97,NNW,335,3.0,3.0,85,0.00,,,0.00,vanprod-2.3,2013-02-27 12:00:00,
2013-02-27 06:05:00,13.6,9.9,29.98,NNW,336,3.0,6.0,85,0.00,,,0.00,vanprod-2.3,2013-02-27 12:05:00,
2013-02-27 06:10:00,13.6,9.9,29.98,NNW,336,4.0,5.0,85,0.00,,,0.00,vanprod-2.3,2013-02-27 12:10:00,
2013-02-27 06:15:00,13.6,9.9,29.98,NNW,336,3.0,5.0,85,0.00,,,0.00,vanprod-2.3,2013-02-27 12:15:00,
2013-02-27 06:20:00,13.6,9.7,29.98,NNW,336,3.0,3.0,84,0.00,,,0.00,vanprod-2.3,2013-02-27 12:20:00,
2013-02-27 06:25:00,13.8,10.1,29.98,NNW,336,4.0,4.0,85,0.00,,,0.00,vanprod-2.3,2013-02-27 12:25:00,
2013-02-27 06:30:00,13.8,9.9,29.99,NNW,337,5.0,5.0,84,0.00,,,0.00,vanprod-2.3,2013-02-27 12:30:00,
2013-02-27 06:35:00,13.8,9.9,29.98,NNW,336,3.0,3.0,84,0.00,,,0.00,vanprod-2.3,2013-02-27 12:35:00,
2013-02-27 06:40:00,13.8,9.9,29.99,NNW,337,2.0,3.0,84,0.00,,,0.00,vanprod-2.3,2013-02-27 12:40:00,
2013-02-27 06:45:00,13.6,9.7,29.99,NNW,337,2.0,2.0,84,0.00,,,0.00,vanprod-2.3,2013-02-27 12:45:00,
2013-02-27 06:50:00,13.6,9.7,29.99,NNW,337,4.0,4.0,84,0.00,,,0.00,vanprod-2.3,2013-02-27 12:50:00,
2013-02-27 06:55:00,13.5,9.6,29.99,NNW,337,2.0,2.0,84,0.00,,,0.00,vanprod-2.3,2013-02-27 12:55:00,
2013-02-27 07:00:00,13.5,9.3,29.99,NNW,337,3.0,4.0,83,0.00,,,0.00,vanprod-2.3,2013-02-27 13:00:00,
2013-02-27 07:05:00,13.5,9.3,29.99,NNW,337,4.0,4.0,83,0.00,,,0.00,vanprod-2.3,2013-02-27 13:05:00,
2013-02-27 07:10:00,13.5,9.3,30.00,NNW,337,4.0,4.0,83,0.00,,,0.00,vanprod-2.3,2013-02-27 13:10:00,
2013-02-27 07:15:00,13.3,9.1,30.00,NNW,336,2.0,2.0,83,0.00,,,0.00,vanprod-2.3,2013-02-27 13:15:00,
2013-02-27 07:20:00,13.3,9.1,30.00,NNW,336,5.0,6.0,83,0.00,,,0.00,vanprod-2.3,2013-02-27 13:20:00,
2013-02-27 07:25:00,13.3,9.1,30.00,NNW,336,3.0,3.0,83,0.00,,,0.00,vanprod-2.3,2013-02-27 13:25:00,
2013-02-27 07:30:00,13.3,9.1,30.00,NNW,336,2.0,5.0,83,0.00,,,0.00,vanprod-2.3,2013-02-27 13:30:00,
2013-02-27 07:35:00,13.1,8.9,30.00,NNW,336,4.0,4.0,83,0.00,,,0.00,vanprod-2.3,2013-02-27 13:35:00,
2013-02-27 07:40:00,13.3,9.1,30.00,NNW,337,3.0,5.0,83,0.00,,,0.00,vanprod-2.3,2013-02-27 13:40:00,
2013-02-27 07:45:00,13.3,9.1,30.00,NNW,337,4.0,7.0,83,0.00,,,0.00,vanprod-2.3,2013-02-27 13:45:00,
2013-02-27 07:50:00,13.5,9.0,30.00,NW,318,5.0,5.0,82,0.00,,,0.00,vanprod-2.3,2013-02-27 13:50:00,
2013-02-27 07:55:00,13.5,9.0,30.00,NW,318,3.0,3.0,82,0.00,,,0.00,vanprod-2.3,2013-02-27 13:55:00,
2013-02-27 08:00:00,13.6,9.1,30.01,NW,318,4.0,10.0,82,0.00,,,0.00,vanprod-2.3,2013-02-27 14:00:00,
2013-02-27 08:05:00,13.6,9.1,30.01,NW,319,3.0,7.0,82,0.00,,,0.00,vanprod-2.3,2013-02-27 14:05:00,
2013-02-27 08:10:00,13.9,9.2,30.01,NNW,329,3.0,3.0,81,0.00,,,0.00,vanprod-2.3,2013-02-27 14:10:00,
2013-02-27 08:15:00,14.3,9.5,30.01,NNW,329,4.0,7.0,81,0.00,,,0.00,vanprod-2.3,2013-02-27 14:15:00,
2013-02-27 08:20:00,14.6,9.8,30.01,NNW,329,2.0,3.0,81,0.00,,,0.00,vanprod-2.3,2013-02-27 14:20:00,
2013-02-27 08:25:00,14.9,9.9,30.01,NNW,329,3.0,5.0,80,0.00,,,0.00,vanprod-2.3,2013-02-27 14:25:00,
2013-02-27 08:30:00,15.1,10.1,30.01,NNW,329,5.0,5.0,80,0.00,,,0.00,vanprod-2.3,2013-02-27 14:30:00,
2013-02-27 08:35:00,15.2,9.9,30.01,NNW,328,3.0,5.0,79,0.00,,,0.00,vanprod-2.3,2013-02-27 14:35:00,
2013-02-27 08:40:00,15.6,10.3,30.01,WNW,298,4.0,4.0,79,0.00,,,0.00,vanprod-2.3,2013-02-27 14:40:00,
2013-02-27 08:45:00,15.7,10.4,30.01,WNW,301,3.0,3.0,79,0.00,,,0.00,vanprod-2.3,2013-02-27 14:45:00,
2013-02-27 08:50:00,15.9,10.3,30.02,WNW,301,3.0,6.0,78,0.00,,,0.00,vanprod-2.3,2013-02-27 14:50:00,
2013-02-27 08:55:00,16.2,10.6,30.02,NW,320,3.0,4.0,78,0.00,,,0.00,vanprod-2.3,2013-02-27 14:55:00,
2013-02-27 09:00:00,16.5,10.9,30.02,NW,320,3.0,3.0,78,0.00,,,0.00,vanprod-2.3,2013-02-27 15:00:00,
2013-02-27 09:05:00,16.8,10.9,30.02,NNW,329,6.0,8.0,77,0.00,,,0.00,vanprod-2.3,2013-02-27 15:05:00,
2013-02-27 09:10:00,17.0,11.0,30.02,NNW,336,3.0,5.0,77,0.00,,,0.00,vanprod-2.3,2013-02-27 15:10:00,
2013-02-27 09:15:00,17.3,11.3,30.02,NW,326,4.0,4.0,77,0.00,,,0.00,vanprod-2.3,2013-02-27 15:15:00,
2013-02-27 09:20:00,17.5,11.2,30.02,NNW,343,6.0,6.0,76,0.00,,,0.00,vanprod-2.3,2013-02-27 15:20:00,
2013-02-27 09:25:00,17.6,11.3,30.02,NNW,343,5.0,5.0,76,0.00,,,0.00,vanprod-2.3,2013-02-27 15:25:00,
2013-02-27 09:30:00,17.9,11.3,30.02,NNW,348,7.0,12.0,75,0.00,,,0.00,vanprod-2.3,2013-02-27 15:30:00,
2013-02-27 09:35:00,18.3,11.7,30.02,NNW,335,4.0,4.0,75,0.00,,,0.00,vanprod-2.3,2013-02-27 15:35:00,
2013-02-27 09:40:00,18.7,11.8,30.02,NNW,347,5.0,10.0,74,0.00,,,0.00,vanprod-2.3,2013-02-27 15:40:00,
2013-02-27 09:45:00,19.2,12.0,30.02,North,355,7.0,7.0,73,0.00,,,0.00,vanprod-2.3,2013-02-27 15:45:00,
2013-02-27 09:50:00,19.7,12.5,30.02,North,350,3.0,5.0,73,0.00,,,0.00,vanprod-2.3,2013-02-27 15:50:00,
2013-02-27 09:55:00,20.0,12.8,30.02,North,355,6.0,8.0,73,0.00,,,0.00,vanprod-2.3,2013-02-27 15:55:00,
2013-02-27 10:00:00,20.3,12.7,30.02,NNW,335,5.0,7.0,72,0.00,,,0.00,vanprod-2.3,2013-02-27 16:00:00,
2013-02-27 10:05:00,20.8,12.9,30.02,NNW,328,5.0,11.0,71,0.00,,,0.00,vanprod-2.3,2013-02-27 16:05:00,
2013-02-27 10:10:00,20.9,13.0,30.02,North,356,5.0,5.0,71,0.00,,,0.00,vanprod-2.3,2013-02-27 16:10:00,
2013-02-27 10:15:00,21.1,13.2,30.02,NNW,329,7.0,13.0,71,0.00,,,0.00,vanprod-2.3,2013-02-27 16:15:00,
2013-02-27 10:20:00,21.3,13.1,30.02,NNW,329,5.0,6.0,70,0.00,,,0.00,vanprod-2.3,2013-02-27 16:20:00,
2013-02-27 10:25:00,21.4,13.2,30.02,North,353,5.0,5.0,70,0.00,,,0.00,vanprod-2.3,2013-02-27 16:25:00,
2013-02-27 10:30:00,21.7,13.1,30.02,North,350,5.0,7.0,69,0.00,,,0.00,vanprod-2.3,2013-02-27 16:30:00,
2013-02-27 10:35:00,22.2,13.3,30.02,NW,305,7.0,10.0,68,0.00,,,0.00,vanprod-2.3,2013-02-27 16:35:00,
2013-02-27 10:40:00,22.2,13.3,30.02,NW,311,6.0,6.0,68,0.00,,,0.00,vanprod-2.3,2013-02-27 16:40:00,
2013-02-27 10:45:00,22.5,13.9,30.02,NW,322,3.0,8.0,69,0.00,,,0.00,vanprod-2.3,2013-02-27 16:45:00,
2013-02-27 10:50:00,22.8,14.2,30.02,North,0,1.0,7.0,69,0.00,,,0.00,vanprod-2.3,2013-02-27 16:50:00,
2013-02-27 10:55:00,23.1,13.8,30.02,NNW,331,6.0,11.0,67,0.00,,,0.00,vanprod-2.3,2013-02-27 16:55:00,
2013-02-27 11:00:00,23.4,13.7,30.02,NW,308,5.0,6.0,66,0.00,,,0.00,vanprod-2.3,2013-02-27 17:00:00,
2013-02-27 11:05:00,23.4,13.7,30.02,NW,320,7.0,12.0,66,0.00,,,0.00,vanprod-2.3,2013-02-27 17:05:00,
2013-02-27 11:10:00,23.6,13.9,30.02,NW,313,4.0,5.0,66,0.00,,,0.00,vanprod-2.3,2013-02-27 17:10:00,
2013-02-27 11:15:00,23.9,14.6,30.02,NW,311,3.0,3.0,67,0.00,,,0.00,vanprod-2.3,2013-02-27 17:15:00,
2013-02-27 11:20:00,24.2,14.1,30.02,NNW,338,6.0,10.0,65,0.00,,,0.00,vanprod-2.3,2013-02-27 17:20:00,
2013-02-27 11:25:00,24.2,14.5,30.02,North,360,6.0,6.0,66,0.00,,,0.00,vanprod-2.3,2013-02-27 17:25:00,
2013-02-27 11:30:00,24.6,14.5,30.02,North,355,4.0,7.0,65,0.00,,,0.00,vanprod-2.3,2013-02-27 17:30:00,
2013-02-27 11:35:00,25.2,15.8,30.02,NNW,348,3.0,5.0,67,0.00,,,0.00,vanprod-2.3,2013-02-27 17:35:00,
2013-02-27 11:40:00,25.5,15.4,30.02,WNW,290,3.0,7.0,65,0.00,,,0.00,vanprod-2.3,2013-02-27 17:40:00,
2013-02-27 11:45:00,25.8,16.0,30.02,NW,313,3.0,3.0,66,0.00,,,0.00,vanprod-2.3,2013-02-27 17:45:00,
2013-02-27 11:50:00,25.5,15.7,30.02,NW,313,6.0,10.0,66,0.00,,,0.00,vanprod-2.3,2013-02-27 17:50:00,
2013-02-27 11:55:00,25.1,15.7,30.02,NW,313,7.0,12.0,67,0.00,,,0.00,vanprod-2.3,2013-02-27 17:55:00,
2013-02-27 12:00:00,24.8,16.1,30.02,NW,304,4.0,6.0,69,0.00,,,0.00,vanprod-2.3,2013-02-27 18:00:00,
2013-02-27 12:05:00,24.8,15.8,30.02,NW,308,8.0,10.0,68,0.00,,,0.00,vanprod-2.3,2013-02-27 18:05:00,
2013-02-27 12:10:00,24.3,15.6,30.02,NW,312,6.0,10.0,69,0.00,,,0.00,vanprod-2.3,2013-02-27 18:10:00,
2013-02-27 12:15:00,24.3,15.9,30.02,NW,324,6.0,6.0,70,0.00,,,0.00,vanprod-2.3,2013-02-27 18:15:00,
2013-02-27 12:20:00,24.3,16.3,30.02,NW,315,8.0,10.0,71,0.00,,,0.00,vanprod-2.3,2013-02-27 18:20:00,
2013-02-27 12:25:00,24.8,17.1,30.02,NW,318,4.0,6.0,72,0.00,,,0.00,vanprod-2.3,2013-02-27 18:25:00,
2013-02-27 12:30:00,24.8,17.1,30.02,NW,326,6.0,6.0,72,0.00,,,0.00,vanprod-2.3,2013-02-27 18:30:00,
2013-02-27 12:35:00,24.6,17.2,30.02,WNW,302,5.0,11.0,73,0.00,,,0.00,vanprod-2.3,2013-02-27 18:35:00,
2013-02-27 12:40:00,24.9,17.5,30.02,NW,306,6.0,11.0,73,0.00,,,0.00,vanprod-2.3,2013-02-27 18:40:00,
2013-02-27 12:45:00,24.9,17.5,30.02,NW,315,7.0,8.0,73,0.00,,,0.00,vanprod-2.3,2013-02-27 18:45:00,
2013-02-27 12:50:00,25.1,18.0,30.02,NW,321,5.0,6.0,74,0.00,,,0.00,vanprod-2.3,2013-02-27 18:50:00,
2013-02-27 12:55:00,25.3,18.2,30.02,WNW,299,6.0,13.0,74,0.00,,,0.00,vanprod-2.3,2013-02-27 18:55:00,
2013-02-27 13:00:00,25.3,18.2,30.02,WNW,301,6.0,7.0,74,0.00,,,0.00,vanprod-2.3,2013-02-27 19:00:00,
2013-02-27 13:05:00,25.6,18.8,30.02,NW,305,4.0,8.0,75,0.00,,,0.00,vanprod-2.3,2013-02-27 19:05:00,
2013-02-27 13:10:00,26.1,19.0,30.02,WNW,297,6.0,6.0,74,0.00,,,0.00,vanprod-2.3,2013-02-27 19:10:00,
2013-02-27 13:15:00,26.5,19.7,30.02,NW,313,5.0,7.0,75,0.00,,,0.00,vanprod-2.3,2013-02-27 19:15:00,
2013-02-27 13:20:00,26.8,19.3,30.01,North,350,8.0,16.0,73,0.00,,,0.00,vanprod-2.3,2013-02-27 19:20:00,
2013-02-27 13:25:00,27.1,19.6,30.01,NW,320,8.0,8.0,73,0.00,,,0.00,vanprod-2.3,2013-02-27 19:25:00,
2013-02-27 13:30:00,27.4,20.2,30.01,NNW,328,5.0,5.0,74,0.00,,,0.00,vanprod-2.3,2013-02-27 19:30:00,
2013-02-27 13:35:00,27.6,20.7,30.01,WNW,292,5.0,8.0,75,0.00,,,0.00,vanprod-2.3,2013-02-27 19:35:00,
2013-02-27 13:40:00,28.0,20.8,30.01,WNW,293,5.0,5.0,74,0.00,,,0.00,vanprod-2.3,2013-02-27 19:40:00,
2013-02-27 13:45:00,27.9,20.7,30.01,NW,305,6.0,6.0,74,0.00,,,0.00,vanprod-2.3,2013-02-27 19:45:00,
2013-02-27 13:50:00,27.4,20.5,30.01,NW,316,6.0,9.0,75,0.00,,,0.00,vanprod-2.3,2013-02-27 19:50:00,
2013-02-27 13:55:00,27.4,20.5,30.01,NW,311,4.0,11.0,75,0.00,,,0.00,vanprod-2.3,2013-02-27 19:55:00,
2013-02-27 14:00:00,27.6,20.4,30.01,NNW,346,6.0,6.0,74,0.00,,,0.00,vanprod-2.3,2013-02-27 20:00:00,
2013-02-27 14:05:00,27.1,19.9,30.01,WNW,298,5.0,6.0,74,0.00,,,0.00,vanprod-2.3,2013-02-27 20:05:00,
2013-02-27 14:10:00,26.8,20.0,30.01,WNW,303,5.0,6.0,75,0.00,,,0.00,vanprod-2.3,2013-02-27 20:10:00,
2013-02-27 14:15:00,26.2,19.4,30.01,NNW,338,8.0,11.0,75,0.00,,,0.00,vanprod-2.3,2013-02-27 20:15:00,
2013-02-27 14:20:00,26.4,19.9,30.01,NW,326,5.0,6.0,76,0.00,,,0.00,vanprod-2.3,2013-02-27 20:20:00,
2013-02-27 14:25:00,26.2,19.7,30.01,NNW,332,5.0,5.0,76,0.00,,,0.00,vanprod-2.3,2013-02-27 20:25:00,
2013-02-27 14:30:00,25.9,19.4,30.01,NW,308,7.0,10.0,76,0.00,,,0.00,vanprod-2.3,2013-02-27 20:30:00,
2013-02-27 14:35:00,25.9,19.7,30.01,NW,322,6.0,12.0,77,0.00,,,0.00,vanprod-2.3,2013-02-27 20:35:00,
2013-02-27 14:40:00,26.1,19.3,30.01,NW,325,4.0,4.0,75,0.00,,,0.00,vanprod-2.3,2013-02-27 20:40:00,
2013-02-27 14:45:00,26.2,19.4,30.01,NNW,339,6.0,6.0,75,0.00,,,0.00,vanprod-2.3,2013-02-27 20:45:00,
2013-02-27 14:50:00,26.2,19.4,30.01,WNW,298,8.0,11.0,75,0.00,,,0.00,vanprod-2.3,2013-02-27 20:50:00,
2013-02-27 14:55:00,25.9,19.1,30.01,NW,317,7.0,13.0,75,0.00,,,0.00,vanprod-2.3,2013-02-27 20:55:00,
2013-02-27 15:00:00,25.8,19.3,30.02,NW,309,7.0,7.0,76,0.00,,,0.00,vanprod-2.3,2013-02-27 21:00:00,
2013-02-27 15:05:00,25.6,19.1,30.02,WSW,258,8.0,8.0,76,0.00,,,0.00,vanprod-2.3,2013-02-27 21:05:00,
2013-02-27 15:10:00,25.8,19.9,30.02,NW,314,3.0,3.0,78,0.00,,,0.00,vanprod-2.3,2013-02-27 21:10:00,
2013-02-27 15:15:00,25.3,19.4,30.02,North,351,6.0,10.0,78,0.00,,,0.00,vanprod-2.3,2013-02-27 21:15:00,
2013-02-27 15:20:00,24.9,19.0,30.02,North,360,5.0,5.0,78,0.00,,,0.00,vanprod-2.3,2013-02-27 21:20:00,
2013-02-27 15:25:00,25.1,19.5,30.02,NW,306,4.0,4.0,79,0.00,,,0.00,vanprod-2.3,2013-02-27 21:25:00,
2013-02-27 15:30:00,25.1,19.5,30.02,NW,306,7.0,7.0,79,0.00,,,0.00,vanprod-2.3,2013-02-27 21:30:00,
2013-02-27 15:35:00,24.8,18.9,30.02,West,281,12.0,12.0,78,0.00,,,0.00,vanprod-2.3,2013-02-27 21:35:00,
2013-02-27 15:40:00,24.3,18.7,30.02,NW,320,9.0,12.0,79,0.00,,,0.00,vanprod-2.3,2013-02-27 21:40:00,
2013-02-27 15:45:00,23.9,18.6,30.02,NW,323,10.0,10.0,80,0.00,,,0.00,vanprod-2.3,2013-02-27 21:45:00,
2013-02-27 15:50:00,23.6,18.9,30.02,NW,316,5.0,6.0,82,0.00,,,0.00,vanprod-2.3,2013-02-27 21:50:00,
2013-02-27 15:55:00,23.6,18.9,30.02,NW,326,7.0,7.0,82,0.00,,,0.00,vanprod-2.3,2013-02-27 21:55:00,
2013-02-27 16:00:00,23.4,18.7,30.02,NW,309,8.0,8.0,82,0.00,,,0.00,vanprod-2.3,2013-02-27 22:00:00,
2013-02-27 16:05:00,23.4,19.0,30.02,NW,313,9.0,12.0,83,0.00,,,0.00,vanprod-2.3,2013-02-27 22:05:00,
2013-02-27 16:10:00,23.4,19.0,30.02,WNW,299,5.0,7.0,83,0.00,,,0.00,vanprod-2.3,2013-02-27 22:10:00,
2013-02-27 16:15:00,23.3,18.9,30.02,NW,322,10.0,10.0,83,0.00,,,0.00,vanprod-2.3,2013-02-27 22:15:00,
2013-02-27 16:20:00,23.1,18.7,30.02,NW,320,11.0,16.0,83,0.00,,,0.00,vanprod-2.3,2013-02-27 22:20:00,
2013-02-27 16:25:00,23.0,18.9,30.02,NNW,329,6.0,7.0,84,0.00,,,0.00,vanprod-2.3,2013-02-27 22:25:00,
2013-02-27 16:30:00,23.0,18.9,30.02,NW,317,7.0,7.0,84,0.00,,,0.00,vanprod-2.3,2013-02-27 22:30:00,
2013-02-27 16:35:00,23.1,19.0,30.02,NW,326,7.0,7.0,84,0.00,,,0.00,vanprod-2.3,2013-02-27 22:35:00,
2013-02-27 16:40:00,23.1,19.0,30.02,NW,317,8.0,16.0,84,0.00,,,0.00,vanprod-2.3,2013-02-27 22:40:00,
2013-02-27 16:45:00,23.3,19.2,30.03,NNW,333,8.0,10.0,84,0.00,,,0.00,vanprod-2.3,2013-02-27 22:45:00,
2013-02-27 16:50:00,23.3,19.2,30.03,NNW,336,5.0,5.0,84,0.00,,,0.00,vanprod-2.3,2013-02-27 22:50:00,
2013-02-27 16:55:00,23.4,19.3,30.03,NNW,327,7.0,7.0,84,0.00,,,0.00,vanprod-2.3,2013-02-27 22:55:00,
2013-02-27 17:00:00,23.3,18.9,30.03,North,352,8.0,8.0,83,0.00,,,0.00,vanprod-2.3,2013-02-27 23:00:00,
2013-02-27 17:05:00,23.3,18.9,30.03,NNW,336,7.0,11.0,83,0.00,,,0.00,vanprod-2.3,2013-02-27 23:05:00,
2013-02-27 17:10:00,23.3,18.9,30.03,WNW,288,9.0,12.0,83,0.00,,,0.00,vanprod-2.3,2013-02-27 23:10:00,
2013-02-27 17:15:00,23.1,18.7,30.03,NNW,342,8.0,8.0,83,0.00,,,0.00,vanprod-2.3,2013-02-27 23:15:00,
2013-02-27 17:20:00,23.0,18.6,30.03,North,360,5.0,5.0,83,0.00,,,0.00,vanprod-2.3,2013-02-27 23:20:00,
2013-02-27 17:25:00,23.0,18.9,30.03,NNW,345,7.0,13.0,84,0.00,,,0.00,vanprod-2.3,2013-02-27 23:25:00,
2013-02-27 17:30:00,22.8,18.7,30.03,NNW,330,9.0,9.0,84,0.00,,,0.00,vanprod-2.3,2013-02-27 23:30:00,
2013-02-27 17:35:00,22.7,18.6,30.03,NNW,343,9.0,9.0,84,0.00,,,0.00,vanprod-2.3,2013-02-27 23:35:00,
2013-02-27 17:40:00,22.7,18.6,30.03,NNW,341,8.0,18.0,84,0.00,,,0.00,vanprod-2.3,2013-02-27 23:40:00,
2013-02-27 17:45:00,22.5,18.7,30.03,WNW,298,11.0,12.0,85,0.00,,,0.00,vanprod-2.3,2013-02-27 23:45:00,
2013-02-27 17:50:00,22.5,18.7,30.03,NW,309,7.0,9.0,85,0.00,,,0.00,vanprod-2.3,2013-02-27 23:50:00,
2013-02-27 17:55:00,22.5,19.0,30.03,NW,318,7.0,10.0,86,0.00,,,0.00,vanprod-2.3,2013-02-27 23:55:00,
2013-02-27 18:00:00,22.5,19.0,30.03,NNW,333,6.0,7.0,86,0.00,,,0.00,vanprod-2.3,2013-02-28 00:00:00,
2013-02-27 18:05:00,22.5,19.0,30.04,NW,325,8.0,8.0,86,0.00,,,0.00,vanprod-2.3,2013-02-28 00:05:00,
2013-02-27 18:10:00,22.7,19.4,30.04,NNW,327,4.0,5.0,87,0.00,,,0.00,vanprod-2.3,2013-02-28 00:10:00,
2013-02-27 18:15:00,22.7,19.4,30.04,North,353,7.0,7.0,87,0.00,,,0.00,vanprod-2.3,2013-02-28 00:15:00,
2013-02-27 18:20:00,22.8,19.5,30.04,NNW,333,7.0,8.0,87,0.00,,,0.00,vanprod-2.3,2013-02-28 00:20:00,
2013-02-27 18:25:00,23.0,19.7,30.05,NW,323,6.0,6.0,87,0.00,,,0.00,vanprod-2.3,2013-02-28 00:25:00,
2013-02-27 18:30:00,23.1,19.8,30.05,NW,310,5.0,7.0,87,0.00,,,0.00,vanprod-2.3,2013-02-28 00:30:00,
2013-02-27 18:35:00,23.1,19.8,30.05,NNW,342,7.0,12.0,87,0.00,,,0.00,vanprod-2.3,2013-02-28 00:35:00,
2013-02-27 18:40:00,23.3,20.0,30.05,NNW,347,11.0,12.0,87,0.00,,,0.00,vanprod-2.3,2013-02-28 00:40:00,
2013-02-27 18:45:00,23.4,20.1,30.05,North,350,9.0,9.0,87,0.00,,,0.00,vanprod-2.3,2013-02-28 00:45:00,
2013-02-27 18:50:00,23.6,20.6,30.05,North,355,5.0,6.0,88,0.00,,,0.00,vanprod-2.3,2013-02-28 00:50:00,
2013-02-27 18:55:00,23.7,20.7,30.05,NNW,335,6.0,13.0,88,0.00,,,0.00,vanprod-2.3,2013-02-28 00:55:00,
2013-02-27 19:00:00,23.7,20.7,30.05,NNW,346,7.0,7.0,88,0.00,,,0.00,vanprod-2.3,2013-02-28 01:00:00,
2013-02-27 19:05:00,23.9,20.9,30.05,North,352,8.0,12.0,88,0.00,,,0.00,vanprod-2.3,2013-02-28 01:05:00,
2013-02-27 19:10:00,24.0,21.0,30.05,NNW,342,8.0,8.0,88,0.00,,,0.00,vanprod-2.3,2013-02-28 01:10:00,
2013-02-27 19:15:00,24.2,21.2,30.05,North,0,4.0,8.0,88,0.00,,,0.00,vanprod-2.3,2013-02-28 01:15:00,
2013-02-27 19:20:00,24.2,21.2,30.06,North,351,9.0,13.0,88,0.00,,,0.00,vanprod-2.3,2013-02-28 01:20:00,
2013-02-27 19:25:00,24.3,21.0,30.05,NNW,331,8.0,8.0,87,0.00,,,0.00,vanprod-2.3,2013-02-28 01:25:00,
2013-02-27 19:30:00,24.3,21.0,30.06,North,351,6.0,6.0,87,0.00,,,0.00,vanprod-2.3,2013-02-28 01:30:00,
2013-02-27 19:35:00,24.3,21.0,30.06,NW,321,6.0,20.0,87,0.00,,,0.00,vanprod-2.3,2013-02-28 01:35:00,
2013-02-27 19:40:00,24.3,21.0,30.06,NNW,344,7.0,10.0,87,0.00,,,0.00,vanprod-2.3,2013-02-28 01:40:00,
2013-02-27 19:45:00,24.2,20.9,30.06,NNW,336,12.0,12.0,87,0.00,,,0.00,vanprod-2.3,2013-02-28 01:45:00,
2013-02-27 19:50:00,24.2,20.9,30.06,NNW,347,7.0,7.0,87,0.00,,,0.00,vanprod-2.3,2013-02-28 01:50:00,
2013-02-27 19:55:00,24.2,20.9,30.06,North,355,9.0,9.0,87,0.00,,,0.00,vanprod-2.3,2013-02-28 01:55:00,
2013-02-27 20:00:00,24.2,20.9,30.06,NW,322,6.0,9.0,87,0.00,,,0.00,vanprod-2.3,2013-02-28 02:00:00,
2013-02-27 20:05:00,24.2,20.9,30.06,NNW,345,7.0,10.0,87,0.00,,,0.00,vanprod-2.3,2013-02-28 02:05:00,
2013-02-27 20:10:00,24.0,20.7,30.06,North,9,6.0,6.0,87,0.00,,,0.00,vanprod-2.3,2013-02-28 02:10:00,
2013-02-27 20:15:00,24.0,20.7,30.06,NNW,337,8.0,13.0,87,0.00,,,0.00,vanprod-2.3,2013-02-28 02:15:00,
2013-02-27 20:20:00,24.0,20.7,30.06,North,352,3.0,3.0,87,0.00,,,0.00,vanprod-2.3,2013-02-28 02:20:00,
2013-02-27 20:25:00,23.9,20.6,30.06,North,353,8.0,10.0,87,0.00,,,0.00,vanprod-2.3,2013-02-28 02:25:00,
2013-02-27 20:30:00,23.7,20.4,30.07,NNW,327,6.0,6.0,87,0.00,,,0.00,vanprod-2.3,2013-02-28 02:30:00,
2013-02-27 20:35:00,23.4,20.1,30.06,North,356,8.0,10.0,87,0.00,,,0.00,vanprod-2.3,2013-02-28 02:35:00,
2013-02-27 20:40:00,23.1,19.8,30.06,NW,324,5.0,5.0,87,0.00,,,0.00,vanprod-2.3,2013-02-28 02:40:00,
2013-02-27 20:45:00,23.0,19.7,30.07,NW,319,7.0,7.0,87,0.00,,,0.00,vanprod-2.3,2013-02-28 02:45:00,
2013-02-27 20:50:00,22.8,19.5,30.07,NNW,333,5.0,13.0,87,0.00,,,0.00,vanprod-2.3,2013-02-28 02:50:00,
2013-02-27 20:55:00,22.7,19.4,30.07,NW,305,6.0,6.0,87,0.00,,,0.00,vanprod-2.3,2013-02-28 02:55:00,
2013-02-27 21:00:00,22.5,19.2,30.07,NNW,346,5.0,5.0,87,0.00,,,0.00,vanprod-2.3,2013-02-28 03:00:00,
2013-02-27 21:05:00,22.4,19.1,30.07,NNW,330,5.0,11.0,87,0.00,,,0.00,vanprod-2.3,2013-02-28 03:05:00,
2013-02-27 21:10:00,22.4,19.1,30.07,NW,324,4.0,4.0,87,0.00,,,0.00,vanprod-2.3,2013-02-28 03:10:00,
2013-02-27 21:15:00,22.2,19.2,30.07,NNW,335,6.0,6.0,88,0.00,,,0.00,vanprod-2.3,2013-02-28 03:15:00,
2013-02-27 21:20:00,22.2,19.2,30.07,NW,305,4.0,4.0,88,0.00,,,0.00,vanprod-2.3,2013-02-28 03:20:00,
2013-02-27 21:25:00,22.0,19.0,30.08,NW,325,5.0,6.0,88,0.00,,,0.00,vanprod-2.3,2013-02-28 03:25:00,
2013-02-27 21:30:00,22.0,19.0,30.08,NNW,340,4.0,6.0,88,0.00,,,0.00,vanprod-2.3,2013-02-28 03:30:00,
2013-02-27 21:35:00,22.0,19.0,30.08,NNW,340,5.0,12.0,88,0.00,,,0.00,vanprod-2.3,2013-02-28 03:35:00,
2013-02-27 21:40:00,22.0,19.0,30.08,NNW,335,6.0,7.0,88,0.00,,,0.00,vanprod-2.3,2013-02-28 03:40:00,
2013-02-27 21:45:00,22.0,19.0,30.08,NNW,342,4.0,4.0,88,0.00,,,0.00,vanprod-2.3,2013-02-28 03:45:00,
2013-02-27 21:50:00,21.9,18.9,30.08,NNW,347,5.0,6.0,88,0.00,,,0.00,vanprod-2.3,2013-02-28 03:50:00,
2013-02-27 21:55:00,22.0,19.0,30.08,NNW,333,3.0,3.0,88,0.00,,,0.00,vanprod-2.3,2013-02-28 03:55:00,
2013-02-27 22:00:00,22.0,19.0,30.08,NNW,338,7.0,7.0,88,0.00,,,0.00,vanprod-2.3,2013-02-28 04:00:00,
2013-02-27 22:05:00,21.9,18.9,30.08,NNW,344,6.0,6.0,88,0.00,,,0.00,vanprod-2.3,2013-02-28 04:05:00,
2013-02-27 22:10:00,21.9,18.9,30.08,NW,318,5.0,5.0,88,0.00,,,0.00,vanprod-2.3,2013-02-28 04:10:00,
2013-02-27 22:15:00,21.9,18.9,30.08,NW,326,5.0,6.0,88,0.00,,,0.00,vanprod-2.3,2013-02-28 04:15:00,
2013-02-27 22:20:00,21.9,18.9,30.08,NNW,340,4.0,10.0,88,0.00,,,0.00,vanprod-2.3,2013-02-28 04:20:00,
2013-02-27 22:25:00,21.9,18.9,30.08,North,350,6.0,8.0,88,0.00,,,0.00,vanprod-2.3,2013-02-28 04:25:00,
2013-02-27 22:30:00,21.9,18.9,30.08,North,351,3.0,11.0,88,0.00,,,0.00,vanprod-2.3,2013-02-28 04:30:00,
2013-02-27 22:35:00,21.7,18.7,30.08,NNW,333,5.0,5.0,88,0.00,,,0.00,vanprod-2.3,2013-02-28 04:35:00,
2013-02-27 22:40:00,21.7,18.7,30.08,North,0,4.0,7.0,88,0.00,,,0.00,vanprod-2.3,2013-02-28 04:40:00,
2013-02-27 22:45:00,21.7,18.7,30.08,North,349,5.0,6.0,88,0.00,,,0.00,vanprod-2.3,2013-02-28 04:45:00,
2013-02-27 22:50:00,21.6,18.9,30.08,NNW,348,7.0,7.0,89,0.00,,,0.00,vanprod-2.3,2013-02-28 04:50:00,
2013-02-27 22:55:00,21.6,18.9,30.08,NW,322,6.0,6.0,89,0.00,,,0.00,vanprod-2.3,2013-02-28 04:55:00,
2013-02-27 23:00:00,21.6,18.9,30.08,NNW,331,5.0,6.0,89,0.00,,,0.00,vanprod-2.3,2013-02-28 05:00:00,
2013-02-27 23:05:00,21.4,18.7,30.09,NNW,345,4.0,5.0,89,0.00,,,0.00,vanprod-2.3,2013-02-28 05:05:00,
2013-02-27 23:10:00,21.4,18.7,30.09,NNW,348,7.0,7.0,89,0.00,,,0.00,vanprod-2.3,2013-02-28 05:10:00,
2013-02-27 23:15:00,21.4,18.7,30.09,NNW,342,6.0,8.0,89,0.00,,,0.00,vanprod-2.3,2013-02-28 05:15:00,
2013-02-27 23:20:00,21.3,18.6,30.09,NNW,346,6.0,6.0,89,0.00,,,0.00,vanprod-2.3,2013-02-28 05:20:00,
2013-02-27 23:25:00,21.3,18.6,30.09,North,352,4.0,6.0,89,0.00,,,0.00,vanprod-2.3,2013-02-28 05:25:00,
2013-02-27 23:30:00,21.1,18.4,30.09,NNW,343,4.0,8.0,89,0.00,,,0.00,vanprod-2.3,2013-02-28 05:30:00,
2013-02-27 23:35:00,21.1,18.4,30.09,North,359,4.0,7.0,89,0.00,,,0.00,vanprod-2.3,2013-02-28 05:35:00,
2013-02-27 23:40:00,21.1,18.4,30.09,North,356,6.0,6.0,89,0.00,,,0.00,vanprod-2.3,2013-02-28 05:40:00,
2013-02-27 23:45:00,21.1,18.4,30.09,North,359,4.0,6.0,89,0.00,,,0.00,vanprod-2.3,2013-02-28 05:45:00,
2013-02-27 23:50:00,20.8,18.1,30.09,NNW,337,5.0,7.0,89,0.00,,,0.00,vanprod-2.3,2013-02-28 05:50:00,
2013-02-27 23:55:00,20.8,18.1,30.09,NNW,330,4.0,4.0,89,0.00,,,0.00,vanprod-2.3,2013-02-28 05:55:00,